Time;durP1;ratioP1;P1;durP2;ratioP2;P2;SDS_P1;SDS_P2;PMS_P1;PMS_P2;Temp;Humidity;BMP_temperature;BMP_pressure;BME280_temperature;BME280_humidity;BME280_pressure;Samples;Min_cycle;Max_cycle;Signal;HPM_P1;HPM_P2
2022/03/08 00:02:17;;;;;;;26.50;14.63;;;2.40;59.60;;;;;;5045930;28;20503;-47
2022/03/08 00:04:44;;;;;;;29.43;13.07;;;2.50;59.80;;;;;;5047507;28;21006;-47
2022/03/08 00:07:12;;;;;;;18.07;10.43;;;2.50;59.80;;;;;;5046378;28;20517;-47
2022/03/08 00:09:39;;;;;;;22.47;13.20;;;2.40;59.80;;;;;;5045017;28;21357;-46
2022/03/08 00:12:08;;;;;;;27.87;13.23;;;2.50;59.70;;;;;;5045550;28;20610;-47
2022/03/08 00:14:35;;;;;;;23.03;14.03;;;2.50;59.90;;;;;;5043352;28;21008;-46
2022/03/08 00:17:03;;;;;;;26.37;14.50;;;2.40;60.20;;;;;;5070189;28;20473;-46
2022/03/08 00:19:30;;;;;;;32.83;15.47;;;2.40;59.90;;;;;;5041775;28;20482;-46
2022/03/08 00:21:57;;;;;;;25.13;14.23;;;2.40;59.90;;;;;;5045513;28;20483;-46
2022/03/08 00:24:24;;;;;;;20.53;14.73;;;2.30;59.20;;;;;;5046518;28;20478;-46
2022/03/08 00:26:50;;;;;;;27.77;13.97;;;2.30;59.60;;;;;;5042464;28;20477;-46
2022/03/08 00:29:18;;;;;;;18.40;12.27;;;2.40;59.40;;;;;;5040403;28;20508;-47
2022/03/08 00:31:45;;;;;;;25.17;14.83;;;2.40;59.80;;;;;;5037211;28;20482;-47
2022/03/08 00:34:12;;;;;;;31.20;16.67;;;2.40;60.00;;;;;;5039219;28;20505;-47
2022/03/08 00:36:39;;;;;;;23.37;14.57;;;2.40;59.80;;;;;;5061928;28;20490;-46
2022/03/08 00:39:06;;;;;;;23.03;15.17;;;2.40;59.70;;;;;;5041833;28;20489;-47
2022/03/08 00:41:33;;;;;;;26.60;14.77;;;2.40;59.70;;;;;;5041635;28;20962;-47
2022/03/08 00:44:01;;;;;;;20.40;13.33;;;2.40;59.60;;;;;;5041763;28;20466;-47
2022/03/08 00:46:29;;;;;;;21.23;14.00;;;2.30;60.10;;;;;;5042868;28;20474;-46
2022/03/08 00:48:55;;;;;;;27.13;15.07;;;2.30;60.60;;;;;;5036211;28;21305;-47
2022/03/08 00:51:23;;;;;;;27.40;15.20;;;2.30;60.70;;;;;;5042487;28;20592;-47
2022/03/08 00:53:50;;;;;;;25.70;16.20;;;2.30;60.60;;;;;;5041175;28;20493;-47
2022/03/08 00:56:16;;;;;;;23.53;15.50;;;2.20;60.90;;;;;;5042671;28;20480;-47
2022/03/08 00:58:44;;;;;;;24.50;14.80;;;2.10;60.90;;;;;;5038863;28;20505;-47
2022/03/08 01:01:11;;;;;;;25.30;14.20;;;2.00;60.80;;;;;;5038818;28;20485;-47
2022/03/08 01:03:40;;;;;;;25.47;14.93;;;2.00;61.30;;;;;;5042947;28;20507;-47
2022/03/08 01:06:06;;;;;;;27.47;16.37;;;1.90;61.50;;;;;;5041162;28;20485;-48
2022/03/08 01:08:33;;;;;;;33.80;18.00;;;1.90;61.30;;;;;;5040353;28;21221;-47
2022/03/08 01:11:00;;;;;;;25.47;16.43;;;1.80;61.80;;;;;;5043270;28;20471;-47
2022/03/08 01:13:27;;;;;;;27.30;18.10;;;1.80;61.90;;;;;;5039759;28;20491;-47
2022/03/08 01:15:54;;;;;;;29.53;17.33;;;;;;;;;;5041175;28;20482;-47
2022/03/08 01:18:21;;;;;;;26.87;15.27;;;1.70;62.60;;;;;;5038511;28;20483;-47
2022/03/08 01:20:49;;;;;;;23.80;15.73;;;1.70;62.20;;;;;;5037648;28;20466;-47
2022/03/08 01:23:16;;;;;;;29.50;14.30;;;1.60;61.70;;;;;;5041217;28;20521;-47
2022/03/08 01:25:43;;;;;;;23.60;13.97;;;1.70;62.20;;;;;;5041351;28;20478;-47
2022/03/08 01:28:10;;;;;;;22.47;14.67;;;1.60;62.10;;;;;;5042888;28;21019;-47
2022/03/08 01:30:36;;;;;;;25.93;15.57;;;1.60;61.90;;;;;;5027986;28;20482;-47
2022/03/08 01:33:04;;;;;;;23.83;14.17;;;1.60;61.40;;;;;;5040586;28;20725;-47
2022/03/08 01:35:30;;;;;;;28.93;17.20;;;1.60;62.00;;;;;;5038888;28;20475;-46
2022/03/08 01:37:58;;;;;;;21.93;13.70;;;1.60;61.90;;;;;;5040612;28;20481;-46
2022/03/08 01:40:25;;;;;;;25.40;15.47;;;1.70;62.00;;;;;;5038784;28;20852;-47
2022/03/08 01:42:53;;;;;;;22.77;13.07;;;1.60;61.80;;;;;;5040550;28;20481;-47
2022/03/08 01:45:21;;;;;;;20.80;12.77;;;1.60;62.10;;;;;;5039591;28;20484;-46
2022/03/08 01:47:49;;;;;;;27.37;15.57;;;1.70;62.20;;;;;;5039736;28;20689;-47
2022/03/08 01:50:16;;;;;;;23.43;12.27;;;1.60;62.00;;;;;;5037092;28;21343;-47
2022/03/08 01:52:44;;;;;;;24.43;12.30;;;1.60;61.40;;;;;;5038333;28;20486;-47
2022/03/08 01:55:14;;;;;;;18.57;11.10;;;1.60;61.40;;;;;;5039185;28;20472;-47
2022/03/08 01:57:41;;;;;;;24.87;13.87;;;1.70;61.60;;;;;;5038041;28;20470;-47
2022/03/08 02:00:12;;;;;;;26.60;15.50;;;1.70;61.60;;;;;;5024989;28;20509;-47
2022/03/08 02:02:39;;;;;;;22.23;11.87;;;1.70;61.30;;;;;;5040326;28;21035;-46
2022/03/08 02:05:06;;;;;;;20.27;13.07;;;1.70;61.20;;;;;;5037394;28;20891;-46
2022/03/08 02:07:33;;;;;;;29.23;13.93;;;1.70;61.20;;;;;;5039048;28;20482;-46
2022/03/08 02:10:00;;;;;;;25.20;14.27;;;1.80;61.20;;;;;;5031307;28;20598;-46
2022/03/08 02:12:28;;;;;;;20.60;11.80;;;1.80;61.30;;;;;;5045003;28;20477;-46
2022/03/08 02:14:55;;;;;;;34.08;14.18;;;1.80;61.20;;;;;;4996992;28;1055835;-46
2022/03/08 02:17:22;;;;;;;22.07;11.53;;;1.80;61.60;;;;;;5041236;28;20487;-46
2022/03/08 02:19:48;;;;;;;19.67;11.13;;;1.80;61.10;;;;;;5039947;28;20488;-47
2022/03/08 02:22:16;;;;;;;35.70;15.17;;;1.80;61.30;;;;;;5036592;28;20477;-46
2022/03/08 02:24:43;;;;;;;24.67;14.30;;;1.80;61.30;;;;;;5045527;28;20494;-46
2022/03/08 02:27:10;;;;;;;19.80;12.90;;;1.80;61.20;;;;;;5039467;28;20485;-46
2022/03/08 02:29:38;;;;;;;29.03;11.07;;;1.80;61.00;;;;;;5039517;28;20476;-45
2022/03/08 02:32:05;;;;;;;29.23;14.00;;;1.80;61.10;;;;;;5041650;28;20475;-46
2022/03/08 02:34:32;;;;;;;20.60;11.00;;;1.70;61.20;;;;;;5037484;28;20829;-46
2022/03/08 02:37:00;;;;;;;26.90;11.90;;;1.80;61.10;;;;;;5041443;28;20496;-46
2022/03/08 02:39:28;;;;;;;23.90;12.40;;;1.80;61.50;;;;;;5038949;28;20484;-46
2022/03/08 02:41:55;;;;;;;20.97;12.17;;;1.80;60.90;;;;;;5037610;28;20487;-45
2022/03/08 02:44:22;;;;;;;33.33;14.43;;;1.80;60.80;;;;;;5040138;28;20481;-46
2022/03/08 02:46:49;;;;;;;18.33;10.20;;;1.80;61.20;;;;;;5040869;28;20492;-46
2022/03/08 02:49:16;;;;;;;19.93;10.87;;;1.70;61.20;;;;;;5040020;28;20485;-46
2022/03/08 02:51:43;;;;;;;26.97;12.93;;;1.70;61.70;;;;;;5039810;28;20478;-46
2022/03/08 02:54:09;;;;;;;14.57;11.67;;;1.70;61.80;;;;;;5040996;28;20473;-46
2022/03/08 02:56:38;;;;;;;25.50;13.90;;;1.60;61.10;;;;;;5040928;28;20489;-45
2022/03/08 02:59:05;;;;;;;23.67;10.53;;;1.60;61.50;;;;;;5038065;28;20469;-46
2022/03/08 03:01:32;;;;;;;17.80;11.37;;;1.60;61.50;;;;;;5039902;28;20883;-45
2022/03/08 03:03:59;;;;;;;21.40;13.00;;;1.60;61.60;;;;;;5041611;28;20930;-46
2022/03/08 03:06:25;;;;;;;31.23;13.23;;;1.60;61.70;;;;;;5045531;28;20954;-46
2022/03/08 03:08:52;;;;;;;9.83;6.63;;;1.60;61.50;;;;;;5036961;28;20478;-45
2022/03/08 03:11:19;;;;;;;20.53;11.47;;;1.60;61.60;;;;;;5040710;28;20997;-46
2022/03/08 03:13:47;;;;;;;28.40;14.40;;;1.60;61.70;;;;;;5041382;28;20981;-47
2022/03/08 03:16:13;;;;;;;22.00;11.67;;;1.60;61.90;;;;;;5041711;28;20482;-47
2022/03/08 03:18:40;;;;;;;18.60;12.30;;;1.60;61.90;;;;;;5042365;28;20464;-46
2022/03/08 03:21:07;;;;;;;22.43;9.03;;;1.60;62.00;;;;;;5042757;28;20484;-46
2022/03/08 03:23:34;;;;;;;17.37;10.23;;;1.60;62.10;;;;;;5043402;28;20474;-47
2022/03/08 03:26:01;;;;;;;17.13;12.10;;;1.60;62.00;;;;;;5043800;28;20497;-46
2022/03/08 03:28:27;;;;;;;28.10;15.10;;;1.60;62.20;;;;;;5045378;28;20481;-47
2022/03/08 03:30:55;;;;;;;21.97;9.50;;;1.50;62.10;;;;;;5041402;28;20476;-46
2022/03/08 03:33:22;;;;;;;10.10;7.57;;;1.50;61.80;;;;;;5044721;28;20476;-46
2022/03/08 03:35:49;;;;;;;22.17;8.47;;;1.50;61.60;;;;;;5052898;28;20491;-46
2022/03/08 03:38:16;;;;;;;18.73;12.33;;;1.60;61.80;;;;;;5050883;28;20486;-45
2022/03/08 03:40:42;;;;;;;13.37;9.73;;;1.50;61.90;;;;;;5029546;28;20478;-45
2022/03/08 03:43:11;;;;;;;24.67;11.20;;;1.50;61.70;;;;;;5044336;28;20478;-45
2022/03/08 03:45:37;;;;;;;14.93;10.20;;;1.50;62.20;;;;;;5043878;28;20837;-45
2022/03/08 03:48:06;;;;;;;10.20;4.80;;;1.50;62.00;;;;;;5044159;28;20486;-48
2022/03/08 03:50:33;;;;;;;22.90;10.23;;;1.50;62.10;;;;;;5039655;28;20485;-47
2022/03/08 03:52:59;;;;;;;30.67;6.70;;;1.50;61.90;;;;;;5043852;28;20494;-45
2022/03/08 03:55:26;;;;;;;16.23;8.30;;;1.50;62.70;;;;;;5043332;28;20493;-45
2022/03/08 03:57:53;;;;;;;18.50;8.67;;;1.40;62.50;;;;;;5042915;28;20489;-46
2022/03/08 04:00:20;;;;;;;15.83;10.03;;;1.40;62.50;;;;;;5039755;28;20500;-44
2022/03/08 04:02:46;;;;;;;18.57;10.70;;;1.40;62.80;;;;;;5044212;28;20477;-45
2022/03/08 04:05:15;;;;;;;31.87;11.00;;;1.40;62.80;;;;;;5043304;28;20487;-46
2022/03/08 04:07:42;;;;;;;17.77;10.53;;;1.40;62.80;;;;;;5043216;28;20987;-45
2022/03/08 04:10:11;;;;;;;21.80;12.67;;;1.40;62.70;;;;;;5042796;28;20511;-46
2022/03/08 04:12:38;;;;;;;21.37;13.10;;;1.40;62.80;;;;;;5043626;28;20486;-46
2022/03/08 04:15:05;;;;;;;16.70;10.93;;;1.40;62.50;;;;;;5042682;28;20490;-46
2022/03/08 04:17:32;;;;;;;20.87;13.10;;;1.40;62.70;;;;;;5041721;28;20491;-46
2022/03/08 04:19:59;;;;;;;14.47;10.53;;;1.40;62.40;;;;;;5038561;28;20488;-46
2022/03/08 04:22:27;;;;;;;18.30;11.23;;;1.40;62.30;;;;;;5042877;28;20497;-47
2022/03/08 04:24:54;;;;;;;21.13;11.17;;;;;;;;;;5043530;28;20505;-46
2022/03/08 04:27:21;;;;;;;22.10;12.23;;;1.40;62.10;;;;;;5042549;28;20928;-47
2022/03/08 04:29:48;;;;;;;18.33;12.03;;;1.40;62.10;;;;;;5042011;28;20891;-46
2022/03/08 04:32:15;;;;;;;18.00;11.07;;;;;;;;;;5042203;28;20498;-46
2022/03/08 04:34:42;;;;;;;16.43;11.07;;;1.50;62.30;;;;;;5041546;28;20500;-47
2022/03/08 04:37:09;;;;;;;16.20;11.80;;;1.40;62.50;;;;;;5042253;28;20468;-46
2022/03/08 04:39:37;;;;;;;18.20;10.33;;;1.40;62.30;;;;;;5041230;28;20976;-46
2022/03/08 04:42:05;;;;;;;11.63;9.03;;;1.40;62.20;;;;;;5042699;28;20497;-46
2022/03/08 04:44:31;;;;;;;17.60;10.70;;;1.40;62.00;;;;;;5043090;28;20495;-46
2022/03/08 04:46:58;;;;;;;19.00;10.50;;;1.40;62.30;;;;;;5040920;28;21078;-46
2022/03/08 04:49:25;;;;;;;19.83;11.37;;;1.40;62.50;;;;;;5039807;28;20486;-46
2022/03/08 04:51:52;;;;;;;14.17;9.77;;;1.40;62.30;;;;;;5043010;28;21257;-46
2022/03/08 04:54:19;;;;;;;15.23;9.60;;;1.40;61.60;;;;;;5042926;28;20481;-46
2022/03/08 04:56:47;;;;;;;19.87;9.53;;;1.40;61.80;;;;;;5041656;28;20560;-46
2022/03/08 04:59:14;;;;;;;14.63;9.67;;;1.40;61.80;;;;;;5041445;28;20484;-46
2022/03/08 05:01:40;;;;;;;10.57;7.07;;;1.40;61.60;;;;;;5041607;28;20477;-45
2022/03/08 05:04:07;;;;;;;16.33;11.50;;;1.40;61.80;;;;;;5040922;28;20482;-46
2022/03/08 05:06:34;;;;;;;16.50;10.17;;;1.40;61.50;;;;;;5041732;28;20850;-46
2022/03/08 05:09:01;;;;;;;14.20;10.27;;;1.40;61.50;;;;;;5040843;28;20539;-46
2022/03/08 05:11:28;;;;;;;18.13;10.47;;;1.40;61.60;;;;;;5041636;28;20481;-46
2022/03/08 05:13:56;;;;;;;15.97;11.53;;;1.50;62.00;;;;;;5041598;28;20485;-46
2022/03/08 05:16:23;;;;;;;17.30;10.23;;;1.50;61.50;;;;;;5037879;28;20478;-47
2022/03/08 05:18:50;;;;;;;16.83;10.60;;;1.60;61.30;;;;;;5047093;28;20471;-46
2022/03/08 05:21:17;;;;;;;18.60;10.63;;;1.60;61.60;;;;;;5038823;28;20474;-46
2022/03/08 05:23:44;;;;;;;19.20;12.33;;;1.60;61.50;;;;;;5042239;28;20529;-47
2022/03/08 05:26:11;;;;;;;15.20;10.67;;;1.60;62.00;;;;;;5041195;28;20578;-46
2022/03/08 05:28:38;;;;;;;15.73;10.03;;;1.60;61.80;;;;;;5045141;28;20485;-46
2022/03/08 05:31:06;;;;;;;22.43;11.10;;;1.50;60.70;;;;;;5041135;28;20489;-46
2022/03/08 05:33:33;;;;;;;15.60;9.73;;;1.50;61.10;;;;;;5038157;28;20852;-46
2022/03/08 05:35:59;;;;;;;22.00;11.10;;;1.40;61.20;;;;;;5036352;28;20973;-46
2022/03/08 05:38:26;;;;;;;20.27;11.40;;;1.40;61.50;;;;;;5029775;28;20489;-46
2022/03/08 05:40:53;;;;;;;17.30;10.17;;;1.40;61.20;;;;;;5060488;28;21516;-48
2022/03/08 05:43:20;;;;;;;7.83;4.33;;;1.40;60.70;;;;;;5032889;28;21108;-46
2022/03/08 05:45:47;;;;;;;15.97;8.97;;;1.30;60.80;;;;;;5039969;28;20486;-45
2022/03/08 05:48:15;;;;;;;12.30;9.10;;;1.40;61.20;;;;;;5041255;28;20478;-46
2022/03/08 05:50:42;;;;;;;14.70;10.40;;;1.40;61.90;;;;;;5038835;28;20489;-45
2022/03/08 05:53:09;;;;;;;27.20;10.37;;;1.40;61.30;;;;;;5041152;28;20481;-46
2022/03/08 05:55:36;;;;;;;15.70;9.20;;;1.30;61.30;;;;;;5041218;28;20482;-45
2022/03/08 05:58:02;;;;;;;11.97;9.10;;;1.30;61.40;;;;;;5040522;28;20492;-47
2022/03/08 06:00:29;;;;;;;16.83;10.87;;;1.40;61.80;;;;;;5040624;28;20518;-46
2022/03/08 06:02:56;;;;;;;23.23;12.10;;;1.30;62.40;;;;;;5041638;28;21207;-46
2022/03/08 06:05:24;;;;;;;20.83;10.00;;;1.30;61.40;;;;;;5041526;28;21124;-46
2022/03/08 06:07:51;;;;;;;21.90;9.83;;;1.30;61.00;;;;;;5040297;28;20480;-45
2022/03/08 06:10:18;;;;;;;15.17;10.00;;;1.30;61.10;;;;;;5042467;28;20482;-46
2022/03/08 06:12:45;;;;;;;19.33;9.23;;;1.40;61.30;;;;;;5040949;28;20565;-46
2022/03/08 06:15:12;;;;;;;16.17;9.30;;;1.40;61.50;;;;;;5040739;28;20495;-46
2022/03/08 06:17:39;;;;;;;24.93;8.10;;;1.40;61.50;;;;;;5038543;28;20516;-46
2022/03/08 06:20:07;;;;;;;14.03;9.57;;;1.50;61.30;;;;;;5039735;28;21181;-46
2022/03/08 06:22:35;;;;;;;16.63;8.63;;;1.50;61.90;;;;;;5040223;28;20912;-46
2022/03/08 06:25:02;;;;;;;18.30;9.37;;;1.50;60.90;;;;;;5044300;28;20482;-46
2022/03/08 06:27:28;;;;;;;14.40;9.33;;;1.50;61.20;;;;;;5040787;28;20485;-46
2022/03/08 06:29:55;;;;;;;22.80;8.80;;;1.40;60.80;;;;;;5038087;28;20481;-46
2022/03/08 06:32:22;;;;;;;14.80;9.23;;;1.50;61.00;;;;;;5043951;28;20481;-45
2022/03/08 06:34:50;;;;;;;13.97;9.90;;;1.50;61.00;;;;;;5040725;28;20484;-46
2022/03/08 06:37:17;;;;;;;20.17;10.83;;;1.50;61.80;;;;;;5036434;28;20662;-45
2022/03/08 06:39:45;;;;;;;17.90;10.00;;;1.50;61.90;;;;;;5046227;28;20488;-46
2022/03/08 06:42:12;;;;;;;12.97;8.07;;;1.50;62.00;;;;;;5039046;28;20477;-46
2022/03/08 06:44:39;;;;;;;15.53;9.47;;;1.50;62.30;;;;;;5036542;28;20489;-46
2022/03/08 06:47:06;;;;;;;17.87;9.90;;;1.40;62.20;;;;;;5040499;28;20519;-47
2022/03/08 06:49:33;;;;;;;17.00;9.00;;;1.40;62.50;;;;;;5039233;28;20473;-46
2022/03/08 06:52:00;;;;;;;29.57;10.73;;;1.40;62.50;;;;;;5043599;28;20509;-47
2022/03/08 06:54:27;;;;;;;14.77;8.40;;;1.50;62.50;;;;;;5043796;28;20485;-46
2022/03/08 06:56:55;;;;;;;14.13;8.73;;;1.50;62.40;;;;;;5036150;28;20476;-46
2022/03/08 06:59:21;;;;;;;32.37;9.33;;;1.50;63.20;;;;;;5044406;28;21329;-47
2022/03/08 07:01:48;;;;;;;13.00;8.03;;;1.50;63.40;;;;;;5045193;28;21161;-46
2022/03/08 07:04:15;;;;;;;14.20;7.67;;;2.00;65.00;;;;;;5045103;28;20481;-46
2022/03/08 07:06:42;;;;;;;23.73;10.50;;;3.40;65.00;;;;;;5043934;28;20476;-47
2022/03/08 07:09:08;;;;;;;11.93;8.07;;;4.70;61.70;;;;;;5041421;28;20483;-47
2022/03/08 07:11:36;;;;;;;12.27;8.70;;;6.10;59.90;;;;;;5063008;28;20473;-47
2022/03/08 07:14:04;;;;;;;20.80;9.70;;;8.00;56.40;;;;;;5045123;28;20532;-47
2022/03/08 07:16:31;;;;;;;11.70;8.80;;;9.10;55.10;;;;;;5044837;28;20491;-46
2022/03/08 07:18:58;;;;;;;7.80;4.10;;;9.90;52.60;;;;;;5038196;28;20497;-46
2022/03/08 07:21:25;;;;;;;22.27;10.97;;;10.80;50.80;;;;;;5057550;28;20509;-47
2022/03/08 07:23:51;;;;;;;14.70;9.03;;;11.30;49.50;;;;;;5050104;28;21057;-46
2022/03/08 07:26:18;;;;;;;12.03;9.13;;;11.80;48.40;;;;;;5041955;28;22860;-47
2022/03/08 07:28:45;;;;;;;24.90;9.63;;;12.50;48.40;;;;;;5042506;28;21046;-46
2022/03/08 07:31:13;;;;;;;7.43;5.70;;;12.90;47.40;;;;;;5040893;28;20488;-46
2022/03/08 07:33:40;;;;;;;13.00;9.87;;;13.40;47.10;;;;;;5040418;28;20476;-47
2022/03/08 07:36:08;;;;;;;15.90;8.63;;;13.90;46.10;;;;;;5042641;28;20489;-47
2022/03/08 07:38:35;;;;;;;10.03;9.03;;;13.90;45.40;;;;;;5042181;28;20484;-48
2022/03/08 07:41:03;;;;;;;11.70;9.60;;;14.10;44.60;;;;;;5041072;28;20474;-49
2022/03/08 07:43:29;;;;;;;13.90;10.03;;;14.50;45.10;;;;;;5043948;28;20485;-47
2022/03/08 07:45:56;;;;;;;10.60;7.90;;;14.50;44.30;;;;;;5044976;28;20493;-46
2022/03/08 07:48:25;;;;;;;14.93;9.00;;;14.70;45.20;;;;;;5042074;28;20490;-47
2022/03/08 07:50:51;;;;;;;30.07;11.60;;;15.10;44.20;;;;;;5040266;28;20486;-47
2022/03/08 07:53:18;;;;;;;13.17;9.33;;;15.20;44.20;;;;;;5046789;28;21098;-46
2022/03/08 07:55:45;;;;;;;12.63;10.30;;;14.90;43.60;;;;;;5041067;28;20494;-47
2022/03/08 07:58:13;;;;;;;10.30;9.17;;;15.10;43.70;;;;;;5040450;28;20491;-47
2022/03/08 08:00:41;;;;;;;16.57;10.47;;;15.40;45.00;;;;;;5043207;28;20487;-47
2022/03/08 08:03:08;;;;;;;10.83;8.67;;;15.70;44.10;;;;;;5042034;28;20486;-47
2022/03/08 08:05:37;;;;;;;13.70;5.60;;;15.60;43.20;;;;;;5041678;28;20838;-46
2022/03/08 08:08:04;;;;;;;10.10;8.50;;;15.50;43.50;;;;;;5041942;28;20512;-47
2022/03/08 08:10:31;;;;;;;12.00;10.60;;;15.50;44.20;;;;;;5039017;28;20509;-47
2022/03/08 08:12:59;;;;;;;16.00;9.33;;;15.40;44.70;;;;;;5041054;28;20805;-46
2022/03/08 08:15:25;;;;;;;11.73;9.27;;;15.20;44.10;;;;;;5042712;28;20499;-47
2022/03/08 08:17:52;;;;;;;9.03;8.13;;;14.90;43.70;;;;;;5041739;28;20515;-46
2022/03/08 08:20:21;;;;;;;17.30;9.90;;;14.10;43.30;;;;;;5036795;28;20500;-47
2022/03/08 08:22:49;;;;;;;11.10;9.10;;;13.60;44.30;;;;;;5038592;28;20502;-47
2022/03/08 08:25:16;;;;;;;9.73;8.77;;;13.20;44.70;;;;;;5039833;28;20485;-46
2022/03/08 08:27:43;;;;;;;22.60;8.10;;;12.30;44.20;;;;;;5036839;28;20488;-47
2022/03/08 08:30:11;;;;;;;10.07;9.07;;;11.10;44.50;;;;;;5048346;28;20476;-47
2022/03/08 08:32:38;;;;;;;14.13;8.40;;;10.70;45.60;;;;;;5033344;28;20487;-47
2022/03/08 08:35:05;;;;;;;14.63;7.30;;;9.90;46.70;;;;;;5033512;28;20483;-47
2022/03/08 08:37:32;;;;;;;5.83;5.33;;;9.80;48.20;;;;;;5050930;28;20491;-45
2022/03/08 08:40:00;;;;;;;9.37;8.43;;;9.40;48.00;;;;;;5045637;28;20469;-46
2022/03/08 08:42:27;;;;;;;13.73;8.47;;;9.40;48.80;;;;;;5041905;28;20483;-46
2022/03/08 08:44:54;;;;;;;7.87;7.03;;;9.60;50.00;;;;;;5041685;28;20467;-46
2022/03/08 08:47:21;;;;;;;13.00;8.87;;;9.50;49.40;;;;;;5040737;28;20490;-46
2022/03/08 08:49:48;;;;;;;13.43;7.27;;;8.60;48.10;;;;;;5040305;28;20517;-46
2022/03/08 08:52:14;;;;;;;10.60;8.33;;;8.80;51.00;;;;;;5041779;28;20490;-47
2022/03/08 08:54:41;;;;;;;9.50;6.80;;;8.80;51.10;;;;;;5040778;28;20487;-47
2022/03/08 08:57:09;;;;;;;31.93;8.90;;;8.60;50.00;;;;;;5044287;28;20493;-47
2022/03/08 08:59:36;;;;;;;15.87;10.90;;;8.70;50.10;;;;;;5041520;28;20487;-47
2022/03/08 09:02:03;;;;;;;18.17;10.13;;;8.90;51.50;;;;;;5043807;28;20487;-46
2022/03/08 09:04:30;;;;;;;15.50;8.50;;;8.60;49.80;;;;;;5039517;28;20507;-47
2022/03/08 09:06:57;;;;;;;7.53;6.40;;;8.60;50.70;;;;;;5041072;28;20470;-46
2022/03/08 09:09:23;;;;;;;8.53;5.37;;;8.60;50.90;;;;;;5040423;28;20489;-47
2022/03/08 09:11:50;;;;;;;15.73;7.70;;;8.80;52.30;;;;;;5040932;28;20489;-46
2022/03/08 09:14:18;;;;;;;8.40;7.50;;;8.90;51.40;;;;;;5039206;28;20478;-46
2022/03/08 09:16:45;;;;;;;17.77;11.50;;;8.90;50.80;;;;;;5040356;28;20486;-46
2022/03/08 09:19:12;;;;;;;19.97;11.20;;;9.20;52.00;;;;;;5039022;28;20490;-47
2022/03/08 09:21:39;;;;;;;22.63;11.70;;;9.40;51.50;;;;;;5040708;28;20521;-47
2022/03/08 09:24:07;;;;;;;19.30;13.47;;;9.60;51.10;;;;;;5040926;28;21289;-48
2022/03/08 09:26:33;;;;;;;20.27;10.27;;;9.10;48.90;;;;;;5037833;28;20996;-46
2022/03/08 09:29:00;;;;;;;10.10;9.00;;;9.30;50.40;;;;;;5036401;28;20580;-46
2022/03/08 09:31:28;;;;;;;12.00;9.83;;;9.30;51.00;;;;;;5038668;28;20497;-46
2022/03/08 09:33:55;;;;;;;16.53;11.63;;;9.60;51.10;;;;;;5040789;28;20490;-46
2022/03/08 09:36:22;;;;;;;9.00;7.40;;;9.80;51.00;;;;;;5041125;28;20489;-46
2022/03/08 09:38:49;;;;;;;7.97;5.50;;;9.80;51.20;;;;;;5038464;28;20578;-46
2022/03/08 09:41:16;;;;;;;14.00;5.90;;;9.60;49.90;;;;;;5041993;28;20486;-46
2022/03/08 09:43:44;;;;;;;13.93;7.23;;;9.30;48.40;;;;;;5041879;28;20837;-47
2022/03/08 09:46:10;;;;;;;9.43;8.37;;;9.60;51.70;;;;;;5040262;28;20471;-46
2022/03/08 09:48:39;;;;;;;12.90;10.23;;;9.90;50.80;;;;;;5039808;28;20482;-49
2022/03/08 09:51:06;;;;;;;11.53;7.47;;;9.70;50.70;;;;;;5040037;28;20486;-46
2022/03/08 09:53:34;;;;;;;9.50;7.57;;;;;;;;;;5040252;28;20510;-46
2022/03/08 09:56:03;;;;;;;8.73;6.20;;;10.20;49.10;;;;;;5041453;28;20486;-51
2022/03/08 09:58:30;;;;;;;8.60;7.70;;;10.10;49.70;;;;;;5039120;28;20486;-47
2022/03/08 10:00:59;;;;;;;9.80;6.67;;;10.40;49.80;;;;;;5039258;28;21020;-47
2022/03/08 10:03:34;;;;;;;11.63;9.23;;;10.30;47.90;;;;;;5039266;28;20573;-47
2022/03/08 10:06:02;;;;;;;8.33;7.00;;;10.50;50.50;;;;;;5065056;28;20485;-47
2022/03/08 10:08:29;;;;;;;14.33;6.73;;;10.80;49.10;;;;;;5038032;28;20479;-46
2022/03/08 10:10:59;;;;;;;7.03;5.33;;;10.70;48.00;;;;;;5039859;28;21159;-46
2022/03/08 10:13:27;;;;;;;15.10;7.40;;;10.80;48.50;;;;;;5039832;28;20573;-46
2022/03/08 10:16:09;;;;;;;14.27;6.63;;;10.40;46.70;;;;;;5040037;28;20563;-47
2022/03/08 10:18:38;;;;;;;12.03;8.67;;;10.50;48.80;;;;;;5021352;28;21048;-46
2022/03/08 10:21:25;;;;;;;13.47;8.40;;;10.80;50.70;;;;;;5024859;28;21242;-47
2022/03/08 10:23:53;;;;;;;9.33;8.33;;;11.00;49.20;;;;;;5037925;28;20655;-47
2022/03/08 10:26:20;;;;;;;9.33;6.17;;;11.00;47.50;;;;;;5042438;28;20617;-46
2022/03/08 10:28:47;;;;;;;8.10;7.40;;;10.40;46.40;;;;;;5038716;28;20477;-48
2022/03/08 10:31:15;;;;;;;27.73;10.07;;;10.00;46.40;;;;;;5044423;28;20486;-48
2022/03/08 10:33:43;;;;;;;12.63;8.17;;;10.10;48.60;;;;;;5042545;28;20506;-47
2022/03/08 10:36:17;;;;;;;10.73;8.27;;;10.30;48.80;;;;;;5041275;28;20490;-48
2022/03/08 10:39:03;;;;;;;7.13;5.60;;;10.00;46.30;;;;;;5038193;28;20493;-48
2022/03/08 10:41:30;;;;;;;8.10;7.27;;;9.80;48.00;;;;;;5037886;28;20461;-48
2022/03/08 10:43:57;;;;;;;8.67;7.67;;;;;;;;;;5048184;28;20584;-46
2022/03/08 10:46:26;;;;;;;10.40;9.30;;;10.30;49.80;;;;;;5042232;28;20481;-47
2022/03/08 10:48:53;;;;;;;10.10;6.70;;;9.80;46.80;;;;;;5041988;28;20483;-47
2022/03/08 10:51:22;;;;;;;10.33;8.30;;;9.90;49.30;;;;;;5043247;28;20486;-48
2022/03/08 10:53:49;;;;;;;9.70;8.80;;;10.00;47.60;;;;;;5044482;28;20485;-48
2022/03/08 10:56:23;;;;;;;8.87;7.93;;;10.20;49.00;;;;;;5037613;28;20490;-47
2022/03/08 10:58:52;;;;;;;10.63;5.70;;;10.10;46.00;;;;;;5036976;28;20561;-47
2022/03/08 11:01:19;;;;;;;8.87;7.30;;;10.40;48.10;;;;;;5043893;28;20474;-47
2022/03/08 11:04:00;;;;;;;13.57;9.70;;;10.80;50.70;;;;;;5043390;28;20913;-47
2022/03/08 11:06:29;;;;;;;6.87;5.20;;;11.10;48.60;;;;;;5043462;28;20474;-47
2022/03/08 11:08:56;;;;;;;14.70;10.03;;;10.80;46.20;;;;;;5034242;28;20995;-48
2022/03/08 11:11:23;;;;;;;13.07;7.20;;;10.70;49.50;;;;;;5053091;28;20489;-47
2022/03/08 11:13:52;;;;;;;8.87;6.77;;;10.80;50.10;;;;;;5050405;28;20483;-47
2022/03/08 11:16:19;;;;;;;8.50;6.40;;;10.90;50.30;;;;;;5043398;28;20486;-46
2022/03/08 11:18:49;;;;;;;16.40;10.43;;;10.80;49.40;;;;;;5042381;28;20481;-47
2022/03/08 11:21:17;;;;;;;15.87;9.30;;;11.10;50.40;;;;;;5046708;28;20482;-47
2022/03/08 11:23:45;;;;;;;11.47;9.50;;;11.20;49.50;;;;;;5042133;28;20486;-49
2022/03/08 11:26:14;;;;;;;17.10;10.47;;;11.40;48.50;;;;;;5043370;28;20597;-47
2022/03/08 11:28:45;;;;;;;10.60;6.30;;;11.50;48.50;;;;;;5022860;28;20490;-47
2022/03/08 11:31:12;;;;;;;9.87;6.30;;;;;;;;;;5037913;28;20518;-47
2022/03/08 11:33:51;;;;;;;13.60;10.70;;;10.80;49.40;;;;;;5041022;28;20475;-47
2022/03/08 11:36:23;;;;;;;13.80;9.97;;;10.90;48.80;;;;;;5030178;28;20474;-48
2022/03/08 11:39:17;;;;;;;14.80;10.80;;;10.50;47.40;;;;;;5039062;28;20880;-47
2022/03/08 11:41:46;;;;;;;16.23;10.73;;;10.60;48.50;;;;;;5029154;28;20478;-48
2022/03/08 11:44:22;;;;;;;9.43;7.00;;;10.60;48.10;;;;;;5043630;28;20711;-47
2022/03/08 11:47:00;;;;;;;10.70;8.47;;;10.60;47.10;;;;;;5033171;28;20579;-46
2022/03/08 11:49:51;;;;;;;11.60;10.03;;;10.70;47.10;;;;;;5043387;28;20487;-47
2022/03/08 11:52:20;;;;;;;25.10;10.70;;;10.40;48.20;;;;;;5037251;28;20474;-48
2022/03/08 11:54:57;;;;;;;15.17;9.17;;;10.50;47.30;;;;;;5041766;28;20833;-48
2022/03/08 11:57:53;;;;;;;12.87;10.40;;;10.50;47.60;;;;;;5041510;28;20491;-48
2022/03/08 12:00:22;;;;;;;11.00;8.73;;;10.40;47.40;;;;;;5029388;28;20471;-48
2022/03/08 12:02:53;;;;;;;20.27;9.67;;;10.90;51.60;;;;;;5038895;28;20483;-46
2022/03/08 12:05:42;;;;;;;9.70;6.80;;;11.00;48.90;;;;;;5034947;28;20570;-46
2022/03/08 12:08:52;;;;;;;16.30;7.10;;;11.10;48.60;;;;;;5050252;28;20488;-46
2022/03/08 12:11:48;;;;;;;20.60;11.27;;;10.90;48.30;;;;;;5031092;28;21023;-48
2022/03/08 12:14:17;;;;;;;9.43;7.07;;;10.90;48.70;;;;;;5030593;28;20470;-45
2022/03/08 12:16:47;;;;;;;13.73;8.77;;;11.20;49.60;;;;;;5028649;28;20479;-45
2022/03/08 12:19:32;;;;;;;12.10;10.10;;;11.40;50.40;;;;;;5033856;28;20490;-46
2022/03/08 12:21:59;;;;;;;9.90;8.00;;;11.60;49.40;;;;;;5040677;28;20514;-45
2022/03/08 12:24:26;;;;;;;7.43;5.90;;;11.70;48.40;;;;;;5037994;28;20577;-46
2022/03/08 12:26:57;;;;;;;13.77;10.27;;;11.60;48.30;;;;;;5040751;28;20486;-46
2022/03/08 12:29:25;;;;;;;11.93;10.83;;;11.50;47.30;;;;;;5038139;28;21293;-47
2022/03/08 12:32:27;;;;;;;9.63;6.63;;;11.20;46.00;;;;;;5037168;28;20560;-47
2022/03/08 12:34:57;;;;;;;13.20;10.53;;;11.10;47.40;;;;;;5037402;28;20561;-47
2022/03/08 12:37:26;;;;;;;12.77;10.00;;;11.20;47.10;;;;;;5041408;28;20510;-47
2022/03/08 12:39:57;;;;;;;13.23;10.90;;;11.30;47.80;;;;;;5040585;28;20480;-47
2022/03/08 12:42:28;;;;;;;9.17;7.10;;;11.30;47.80;;;;;;5040582;28;20486;-46
2022/03/08 12:45:01;;;;;;;16.10;10.70;;;11.50;47.60;;;;;;5038743;28;20493;-46
2022/03/08 12:47:30;;;;;;;11.70;10.20;;;11.90;49.20;;;;;;5038410;28;20479;-48